sensor_id;sensor_type;location;lat;lon;timestamp;P1;durP1;ratioP1;P2;durP2;ratioP2
10511;SDS011;5304;48.604;2.096;2022-09-12T00:00:11;9.87;;;8.23;;
10511;SDS011;5304;48.604;2.096;2022-09-12T00:02:56;10.03;;;8.07;;
10511;SDS011;5304;48.604;2.096;2022-09-12T00:05:42;9.77;;;8.53;;
10511;SDS011;5304;48.604;2.096;2022-09-12T00:08:28;10.70;;;8.83;;
10511;SDS011;5304;48.604;2.096;2022-09-12T00:11:12;14.60;;;9.27;;
10511;SDS011;5304;48.604;2.096;2022-09-12T00:13:58;12.00;;;8.33;;
10511;SDS011;5304;48.604;2.096;2022-09-12T00:16:44;10.80;;;8.60;;
10511;SDS011;5304;48.604;2.096;2022-09-12T00:19:29;9.83;;;8.10;;
10511;SDS011;5304;48.604;2.096;2022-09-12T00:22:13;10.90;;;8.73;;
10511;SDS011;5304;48.604;2.096;2022-09-12T00:24:58;10.47;;;8.10;;
10511;SDS011;5304;48.604;2.096;2022-09-12T00:27:43;11.73;;;8.37;;
10511;SDS011;5304;48.604;2.096;2022-09-12T00:30:27;11.90;;;8.33;;
10511;SDS011;5304;48.604;2.096;2022-09-12T00:33:13;10.90;;;8.90;;
10511;SDS011;5304;48.604;2.096;2022-09-12T00:35:59;12.40;;;9.33;;
10511;SDS011;5304;48.604;2.096;2022-09-12T00:38:49;11.97;;;8.70;;
10511;SDS011;5304;48.604;2.096;2022-09-12T00:41:35;11.67;;;9.07;;
10511;SDS011;5304;48.604;2.096;2022-09-12T00:50:06;11.60;;;8.63;;
10511;SDS011;5304;48.604;2.096;2022-09-12T00:53:05;11.63;;;9.27;;
10511;SDS011;5304;48.604;2.096;2022-09-12T00:55:51;13.17;;;9.13;;
10511;SDS011;5304;48.604;2.096;2022-09-12T00:58:39;13.50;;;9.60;;
10511;SDS011;5304;48.604;2.096;2022-09-12T01:01:32;11.93;;;8.50;;
10511;SDS011;5304;48.604;2.096;2022-09-12T01:04:18;10.20;;;8.60;;
10511;SDS011;5304;48.604;2.096;2022-09-12T01:07:05;13.23;;;9.27;;
10511;SDS011;5304;48.604;2.096;2022-09-12T01:09:51;11.40;;;8.50;;
10511;SDS011;5304;48.604;2.096;2022-09-12T01:12:36;12.50;;;9.00;;
10511;SDS011;5304;48.604;2.096;2022-09-12T01:15:23;13.47;;;9.80;;
10511;SDS011;5304;48.604;2.096;2022-09-12T01:42:15;12.40;;;8.37;;
10511;SDS011;5304;48.604;2.096;2022-09-12T01:45:17;9.33;;;7.80;;
10511;SDS011;5304;48.604;2.096;2022-09-12T01:48:15;10.40;;;8.30;;
10511;SDS011;5304;48.604;2.096;2022-09-12T01:51:23;10.23;;;8.50;;
10511;SDS011;5304;48.604;2.096;2022-09-12T01:54:16;10.57;;;7.67;;
10511;SDS011;5304;48.604;2.096;2022-09-12T01:57:16;10.87;;;8.77;;
10511;SDS011;5304;48.604;2.096;2022-09-12T02:00:11;13.67;;;9.27;;
10511;SDS011;5304;48.604;2.096;2022-09-12T02:02:57;11.97;;;9.80;;
10511;SDS011;5304;48.604;2.096;2022-09-12T02:09:09;13.13;;;9.43;;
10511;SDS011;5304;48.604;2.096;2022-09-12T02:12:19;11.77;;;9.33;;
10511;SDS011;5304;48.604;2.096;2022-09-12T02:15:12;12.23;;;9.77;;
10511;SDS011;5304;48.604;2.096;2022-09-12T02:17:59;13.83;;;9.73;;
10511;SDS011;5304;48.604;2.096;2022-09-12T02:20:47;15.87;;;10.53;;
10511;SDS011;5304;48.604;2.096;2022-09-12T02:23:33;14.37;;;10.40;;
10511;SDS011;5304;48.604;2.096;2022-09-12T02:26:33;13.47;;;10.73;;
10511;SDS011;5304;48.604;2.096;2022-09-12T02:29:24;13.33;;;9.87;;
10511;SDS011;5304;48.604;2.096;2022-09-12T02:32:15;11.90;;;8.50;;
10511;SDS011;5304;48.604;2.096;2022-09-12T02:35:13;14.33;;;9.73;;
10511;SDS011;5304;48.604;2.096;2022-09-12T02:40:56;11.40;;;8.27;;
10511;SDS011;5304;48.604;2.096;2022-09-12T02:43:40;12.77;;;7.90;;
10511;SDS011;5304;48.604;2.096;2022-09-12T02:46:35;9.97;;;8.10;;
10511;SDS011;5304;48.604;2.096;2022-09-12T02:49:24;12.83;;;9.37;;
10511;SDS011;5304;48.604;2.096;2022-09-12T02:52:09;14.27;;;9.77;;
10511;SDS011;5304;48.604;2.096;2022-09-12T02:54:53;13.13;;;10.63;;
10511;SDS011;5304;48.604;2.096;2022-09-12T02:57:39;14.07;;;10.83;;
10511;SDS011;5304;48.604;2.096;2022-09-12T03:00:24;13.33;;;9.97;;
10511;SDS011;5304;48.604;2.096;2022-09-12T03:06:44;13.60;;;10.10;;
10511;SDS011;5304;48.604;2.096;2022-09-12T03:09:52;14.30;;;10.73;;
10511;SDS011;5304;48.604;2.096;2022-09-12T03:12:51;13.03;;;10.03;;
10511;SDS011;5304;48.604;2.096;2022-09-12T03:19:12;13.30;;;10.73;;
10511;SDS011;5304;48.604;2.096;2022-09-12T03:25:02;12.87;;;9.70;;
10511;SDS011;5304;48.604;2.096;2022-09-12T03:28:10;11.83;;;10.27;;
10511;SDS011;5304;48.604;2.096;2022-09-12T03:30:58;10.43;;;8.33;;
10511;SDS011;5304;48.604;2.096;2022-09-12T03:33:43;10.77;;;8.03;;
10511;SDS011;5304;48.604;2.096;2022-09-12T03:36:28;15.10;;;7.87;;
10511;SDS011;5304;48.604;2.096;2022-09-12T03:39:13;8.37;;;6.93;;
10511;SDS011;5304;48.604;2.096;2022-09-12T03:41:58;13.27;;;7.97;;
10511;SDS011;5304;48.604;2.096;2022-09-12T03:44:43;8.27;;;7.33;;
10511;SDS011;5304;48.604;2.096;2022-09-12T03:47:27;10.73;;;8.07;;
10511;SDS011;5304;48.604;2.096;2022-09-12T03:50:12;10.57;;;7.17;;
10511;SDS011;5304;48.604;2.096;2022-09-12T03:53:00;8.90;;;7.43;;
10511;SDS011;5304;48.604;2.096;2022-09-12T03:55:45;8.17;;;6.73;;
10511;SDS011;5304;48.604;2.096;2022-09-12T03:58:30;9.33;;;6.30;;
10511;SDS011;5304;48.604;2.096;2022-09-12T04:01:16;6.43;;;5.17;;
10511;SDS011;5304;48.604;2.096;2022-09-12T04:04:02;6.90;;;5.70;;
10511;SDS011;5304;48.604;2.096;2022-09-12T04:06:46;6.63;;;5.37;;
10511;SDS011;5304;48.604;2.096;2022-09-12T04:09:30;6.53;;;5.60;;
10511;SDS011;5304;48.604;2.096;2022-09-12T04:12:15;6.83;;;5.70;;
10511;SDS011;5304;48.604;2.096;2022-09-12T04:14:59;8.03;;;6.50;;
10511;SDS011;5304;48.604;2.096;2022-09-12T04:17:43;11.10;;;7.93;;
10511;SDS011;5304;48.604;2.096;2022-09-12T04:20:28;13.17;;;8.60;;
10511;SDS011;5304;48.604;2.096;2022-09-12T04:23:12;10.87;;;8.97;;
10511;SDS011;5304;48.604;2.096;2022-09-12T04:25:58;9.27;;;7.83;;
10511;SDS011;5304;48.604;2.096;2022-09-12T04:28:43;10.30;;;7.17;;
10511;SDS011;5304;48.604;2.096;2022-09-12T04:31:29;9.37;;;7.07;;
10511;SDS011;5304;48.604;2.096;2022-09-12T04:34:13;7.97;;;6.93;;
10511;SDS011;5304;48.604;2.096;2022-09-12T04:36:58;7.63;;;6.73;;
10511;SDS011;5304;48.604;2.096;2022-09-12T04:39:42;8.60;;;6.80;;
10511;SDS011;5304;48.604;2.096;2022-09-12T04:42:27;8.37;;;6.43;;
10511;SDS011;5304;48.604;2.096;2022-09-12T04:45:12;7.70;;;6.20;;
10511;SDS011;5304;48.604;2.096;2022-09-12T04:47:57;7.13;;;6.00;;
10511;SDS011;5304;48.604;2.096;2022-09-12T04:50:42;9.27;;;6.30;;
10511;SDS011;5304;48.604;2.096;2022-09-12T04:53:27;8.20;;;7.03;;
10511;SDS011;5304;48.604;2.096;2022-09-12T04:56:11;10.33;;;7.23;;
10511;SDS011;5304;48.604;2.096;2022-09-12T04:58:57;8.27;;;7.23;;
10511;SDS011;5304;48.604;2.096;2022-09-12T05:01:42;8.60;;;6.50;;
10511;SDS011;5304;48.604;2.096;2022-09-12T05:04:27;8.57;;;6.90;;
10511;SDS011;5304;48.604;2.096;2022-09-12T05:07:11;8.20;;;6.97;;
10511;SDS011;5304;48.604;2.096;2022-09-12T05:09:56;8.63;;;6.47;;
10511;SDS011;5304;48.604;2.096;2022-09-12T05:12:41;11.63;;;8.43;;
10511;SDS011;5304;48.604;2.096;2022-09-12T05:15:25;11.37;;;8.10;;
10511;SDS011;5304;48.604;2.096;2022-09-12T05:18:09;9.30;;;7.20;;
10511;SDS011;5304;48.604;2.096;2022-09-12T05:20:54;9.10;;;6.77;;
10511;SDS011;5304;48.604;2.096;2022-09-12T05:23:38;6.67;;;5.97;;
10511;SDS011;5304;48.604;2.096;2022-09-12T05:26:23;6.93;;;6.03;;
10511;SDS011;5304;48.604;2.096;2022-09-12T05:29:08;7.10;;;6.03;;
10511;SDS011;5304;48.604;2.096;2022-09-12T05:31:52;6.80;;;5.80;;
10511;SDS011;5304;48.604;2.096;2022-09-12T05:34:37;8.23;;;6.13;;
10511;SDS011;5304;48.604;2.096;2022-09-12T05:37:22;7.37;;;5.97;;
10511;SDS011;5304;48.604;2.096;2022-09-12T05:40:07;7.53;;;6.20;;
10511;SDS011;5304;48.604;2.096;2022-09-12T05:42:52;9.33;;;6.63;;
10511;SDS011;5304;48.604;2.096;2022-09-12T05:45:37;9.93;;;7.13;;
10511;SDS011;5304;48.604;2.096;2022-09-12T05:48:22;9.03;;;6.07;;
10511;SDS011;5304;48.604;2.096;2022-09-12T05:51:13;7.63;;;5.87;;
10511;SDS011;5304;48.604;2.096;2022-09-12T05:54:03;6.80;;;5.90;;
10511;SDS011;5304;48.604;2.096;2022-09-12T05:56:48;5.93;;;5.30;;
10511;SDS011;5304;48.604;2.096;2022-09-12T05:59:33;6.83;;;5.37;;
10511;SDS011;5304;48.604;2.096;2022-09-12T06:02:18;8.73;;;6.33;;
10511;SDS011;5304;48.604;2.096;2022-09-12T06:05:02;7.60;;;6.50;;
10511;SDS011;5304;48.604;2.096;2022-09-12T06:07:46;8.17;;;6.80;;
10511;SDS011;5304;48.604;2.096;2022-09-12T06:10:31;7.70;;;5.77;;
10511;SDS011;5304;48.604;2.096;2022-09-12T06:13:16;7.17;;;5.97;;
10511;SDS011;5304;48.604;2.096;2022-09-12T06:16:04;6.80;;;5.00;;
10511;SDS011;5304;48.604;2.096;2022-09-12T06:18:51;5.80;;;5.20;;
10511;SDS011;5304;48.604;2.096;2022-09-12T06:21:37;7.43;;;6.03;;
10511;SDS011;5304;48.604;2.096;2022-09-12T06:24:22;8.73;;;5.70;;
10511;SDS011;5304;48.604;2.096;2022-09-12T06:27:07;7.87;;;4.83;;
10511;SDS011;5304;48.604;2.096;2022-09-12T06:29:51;6.37;;;5.33;;
10511;SDS011;5304;48.604;2.096;2022-09-12T06:32:35;7.90;;;5.70;;
10511;SDS011;5304;48.604;2.096;2022-09-12T06:35:20;7.43;;;5.03;;
10511;SDS011;5304;48.604;2.096;2022-09-12T06:38:06;6.70;;;5.20;;
10511;SDS011;5304;48.604;2.096;2022-09-12T06:40:50;8.23;;;5.83;;
10511;SDS011;5304;48.604;2.096;2022-09-12T06:43:35;11.30;;;6.83;;
10511;SDS011;5304;48.604;2.096;2022-09-12T06:46:20;11.93;;;8.03;;
10511;SDS011;5304;48.604;2.096;2022-09-12T06:49:05;12.67;;;8.33;;
10511;SDS011;5304;48.604;2.096;2022-09-12T06:51:50;12.13;;;7.57;;
10511;SDS011;5304;48.604;2.096;2022-09-12T06:54:35;12.37;;;7.27;;
10511;SDS011;5304;48.604;2.096;2022-09-12T06:57:19;10.53;;;6.80;;
10511;SDS011;5304;48.604;2.096;2022-09-12T07:00:04;11.30;;;8.73;;
10511;SDS011;5304;48.604;2.096;2022-09-12T07:02:52;14.03;;;8.57;;
10511;SDS011;5304;48.604;2.096;2022-09-12T07:05:39;11.77;;;8.80;;
10511;SDS011;5304;48.604;2.096;2022-09-12T07:08:23;8.93;;;6.47;;
10511;SDS011;5304;48.604;2.096;2022-09-12T07:11:13;9.48;;;6.47;;
10511;SDS011;5304;48.604;2.096;2022-09-12T07:13:58;6.30;;;5.33;;
10511;SDS011;5304;48.604;2.096;2022-09-12T07:16:44;8.95;;;5.80;;
10511;SDS011;5304;48.604;2.096;2022-09-12T07:19:29;8.50;;;5.55;;
10511;SDS011;5304;48.604;2.096;2022-09-12T07:22:13;6.10;;;5.45;;
10511;SDS011;5304;48.604;2.096;2022-09-12T07:24:57;9.02;;;5.35;;
10511;SDS011;5304;48.604;2.096;2022-09-12T07:27:42;7.60;;;5.88;;
10511;SDS011;5304;48.604;2.096;2022-09-12T07:30:26;7.63;;;5.03;;
10511;SDS011;5304;48.604;2.096;2022-09-12T07:33:10;5.82;;;4.90;;
10511;SDS011;5304;48.604;2.096;2022-09-12T07:35:59;6.78;;;4.47;;
10511;SDS011;5304;48.604;2.096;2022-09-12T07:38:52;7.00;;;3.90;;
10511;SDS011;5304;48.604;2.096;2022-09-12T07:41:38;5.05;;;4.18;;
10511;SDS011;5304;48.604;2.096;2022-09-12T07:44:23;4.80;;;4.25;;
10511;SDS011;5304;48.604;2.096;2022-09-12T07:47:08;6.18;;;4.00;;
10511;SDS011;5304;48.604;2.096;2022-09-12T07:49:52;6.43;;;4.10;;
10511;SDS011;5304;48.604;2.096;2022-09-12T07:52:36;4.38;;;3.92;;
10511;SDS011;5304;48.604;2.096;2022-09-12T07:55:21;4.85;;;4.35;;
10511;SDS011;5304;48.604;2.096;2022-09-12T07:58:06;3.95;;;3.58;;
10511;SDS011;5304;48.604;2.096;2022-09-12T08:00:51;5.47;;;3.85;;
10511;SDS011;5304;48.604;2.096;2022-09-12T08:03:36;4.97;;;3.63;;
10511;SDS011;5304;48.604;2.096;2022-09-12T08:06:21;3.95;;;3.65;;
10511;SDS011;5304;48.604;2.096;2022-09-12T08:09:07;5.03;;;4.00;;
10511;SDS011;5304;48.604;2.096;2022-09-12T08:11:52;4.32;;;3.60;;
10511;SDS011;5304;48.604;2.096;2022-09-12T08:14:36;4.78;;;4.05;;
10511;SDS011;5304;48.604;2.096;2022-09-12T08:17:21;4.20;;;3.80;;
10511;SDS011;5304;48.604;2.096;2022-09-12T08:20:06;4.15;;;3.83;;
10511;SDS011;5304;48.604;2.096;2022-09-12T08:22:52;4.25;;;3.92;;
10511;SDS011;5304;48.604;2.096;2022-09-12T08:25:36;4.10;;;3.70;;
10511;SDS011;5304;48.604;2.096;2022-09-12T08:28:21;5.15;;;3.30;;
10511;SDS011;5304;48.604;2.096;2022-09-12T08:31:08;3.80;;;3.50;;
10511;SDS011;5304;48.604;2.096;2022-09-12T08:33:55;4.05;;;3.38;;
10511;SDS011;5304;48.604;2.096;2022-09-12T08:36:40;3.72;;;3.30;;
10511;SDS011;5304;48.604;2.096;2022-09-12T08:39:25;4.10;;;3.30;;
10511;SDS011;5304;48.604;2.096;2022-09-12T08:42:10;4.07;;;3.50;;
10511;SDS011;5304;48.604;2.096;2022-09-12T08:45:08;4.60;;;3.80;;
10511;SDS011;5304;48.604;2.096;2022-09-12T08:48:07;5.10;;;3.53;;
10511;SDS011;5304;48.604;2.096;2022-09-12T08:50:53;7.20;;;3.45;;
10511;SDS011;5304;48.604;2.096;2022-09-12T08:53:38;3.78;;;3.47;;
10511;SDS011;5304;48.604;2.096;2022-09-12T08:56:24;3.88;;;3.45;;
10511;SDS011;5304;48.604;2.096;2022-09-12T08:59:12;5.13;;;3.25;;
10511;SDS011;5304;48.604;2.096;2022-09-12T09:01:56;4.85;;;3.30;;
10511;SDS011;5304;48.604;2.096;2022-09-12T09:04:48;4.95;;;3.50;;
10511;SDS011;5304;48.604;2.096;2022-09-12T09:07:44;7.93;;;3.08;;
10511;SDS011;5304;48.604;2.096;2022-09-12T09:17:08;4.80;;;3.20;;
10511;SDS011;5304;48.604;2.096;2022-09-12T09:19:58;4.90;;;3.28;;
10511;SDS011;5304;48.604;2.096;2022-09-12T09:22:58;4.60;;;3.22;;
10511;SDS011;5304;48.604;2.096;2022-09-12T09:25:59;3.53;;;3.20;;
10511;SDS011;5304;48.604;2.096;2022-09-12T09:28:48;3.30;;;2.40;;
10511;SDS011;5304;48.604;2.096;2022-09-12T09:31:36;3.25;;;2.95;;
10511;SDS011;5304;48.604;2.096;2022-09-12T09:34:23;3.65;;;2.92;;
10511;SDS011;5304;48.604;2.096;2022-09-12T09:37:18;4.55;;;2.97;;
10511;SDS011;5304;48.604;2.096;2022-09-12T09:46:05;3.45;;;2.45;;
10511;SDS011;5304;48.604;2.096;2022-09-12T09:48:50;4.47;;;2.47;;
10511;SDS011;5304;48.604;2.096;2022-09-12T09:51:37;2.85;;;2.45;;
10511;SDS011;5304;48.604;2.096;2022-09-12T09:54:23;4.13;;;2.63;;
10511;SDS011;5304;48.604;2.096;2022-09-12T10:05:58;3.65;;;2.03;;
10511;SDS011;5304;48.604;2.096;2022-09-12T10:08:45;2.22;;;2.03;;
10511;SDS011;5304;48.604;2.096;2022-09-12T10:11:31;3.10;;;1.95;;
10511;SDS011;5304;48.604;2.096;2022-09-12T10:14:30;2.00;;;1.90;;
10511;SDS011;5304;48.604;2.096;2022-09-12T10:17:26;3.25;;;2.38;;
10511;SDS011;5304;48.604;2.096;2022-09-12T10:20:34;2.38;;;2.00;;
10511;SDS011;5304;48.604;2.096;2022-09-12T10:23:34;2.67;;;1.90;;
10511;SDS011;5304;48.604;2.096;2022-09-12T10:26:20;5.32;;;1.90;;
10511;SDS011;5304;48.604;2.096;2022-09-12T10:29:14;7.55;;;2.17;;
10511;SDS011;5304;48.604;2.096;2022-09-12T10:32:02;2.97;;;2.00;;
10511;SDS011;5304;48.604;2.096;2022-09-12T10:34:52;3.67;;;2.15;;
10511;SDS011;5304;48.604;2.096;2022-09-12T10:37:40;3.38;;;1.85;;
10511;SDS011;5304;48.604;2.096;2022-09-12T10:41:04;1.52;;;1.42;;
10511;SDS011;5304;48.604;2.096;2022-09-12T10:43:51;4.15;;;2.20;;
10511;SDS011;5304;48.604;2.096;2022-09-12T10:46:48;4.75;;;1.75;;
10511;SDS011;5304;48.604;2.096;2022-09-12T10:49:33;1.80;;;1.70;;
10511;SDS011;5304;48.604;2.096;2022-09-12T10:52:23;3.85;;;1.73;;
10511;SDS011;5304;48.604;2.096;2022-09-12T10:55:12;1.65;;;1.55;;
10511;SDS011;5304;48.604;2.096;2022-09-12T10:58:07;2.45;;;1.50;;
10511;SDS011;5304;48.604;2.096;2022-09-12T11:07:26;2.28;;;1.75;;
10511;SDS011;5304;48.604;2.096;2022-09-12T11:11:33;2.38;;;1.40;;
10511;SDS011;5304;48.604;2.096;2022-09-12T11:17:34;2.70;;;1.65;;
10511;SDS011;5304;48.604;2.096;2022-09-12T11:27:14;2.65;;;1.10;;
10511;SDS011;5304;48.604;2.096;2022-09-12T11:29:48;1.92;;;1.40;;
10511;SDS011;5304;48.604;2.096;2022-09-12T11:32:44;1.30;;;1.20;;
10511;SDS011;5304;48.604;2.096;2022-09-12T11:35:49;3.10;;;1.20;;
10511;SDS011;5304;48.604;2.096;2022-09-12T11:38:37;1.90;;;1.30;;
10511;SDS011;5304;48.604;2.096;2022-09-12T11:41:36;1.60;;;1.45;;
10511;SDS011;5304;48.604;2.096;2022-09-12T11:44:40;3.60;;;1.40;;
10511;SDS011;5304;48.604;2.096;2022-09-12T11:47:28;2.65;;;1.20;;
10511;SDS011;5304;48.604;2.096;2022-09-12T11:50:21;1.60;;;1.23;;
10511;SDS011;5304;48.604;2.096;2022-09-12T11:55:58;1.40;;;1.30;;
10511;SDS011;5304;48.604;2.096;2022-09-12T11:59:34;1.52;;;1.20;;
10511;SDS011;5304;48.604;2.096;2022-09-12T12:02:01;3.58;;;1.70;;
10511;SDS011;5304;48.604;2.096;2022-09-12T12:07:58;1.58;;;1.38;;
10511;SDS011;5304;48.604;2.096;2022-09-12T12:10:49;4.72;;;1.33;;
10511;SDS011;5304;48.604;2.096;2022-09-12T12:13:44;1.38;;;1.20;;
10511;SDS011;5304;48.604;2.096;2022-09-12T12:22:07;1.10;;;1.10;;
10511;SDS011;5304;48.604;2.096;2022-09-12T12:27:57;2.22;;;1.52;;
10511;SDS011;5304;48.604;2.096;2022-09-12T12:39:55;1.60;;;1.48;;
10511;SDS011;5304;48.604;2.096;2022-09-12T12:48:13;1.45;;;1.35;;
10511;SDS011;5304;48.604;2.096;2022-09-12T12:54:28;2.10;;;1.40;;
10511;SDS011;5304;48.604;2.096;2022-09-12T13:00:38;2.50;;;1.70;;
10511;SDS011;5304;48.604;2.096;2022-09-12T13:03:26;2.25;;;1.70;;
10511;SDS011;5304;48.604;2.096;2022-09-12T13:06:23;3.38;;;1.55;;
10511;SDS011;5304;48.604;2.096;2022-09-12T13:12:31;2.55;;;1.50;;
10511;SDS011;5304;48.604;2.096;2022-09-12T13:15:46;2.33;;;1.50;;
10511;SDS011;5304;48.604;2.096;2022-09-12T13:18:39;1.50;;;1.40;;
10511;SDS011;5304;48.604;2.096;2022-09-12T13:21:24;3.83;;;1.75;;
10511;SDS011;5304;48.604;2.096;2022-09-12T13:24:12;1.70;;;1.60;;
10511;SDS011;5304;48.604;2.096;2022-09-12T13:27:00;2.53;;;1.63;;
10511;SDS011;5304;48.604;2.096;2022-09-12T13:29:45;2.88;;;1.67;;
10511;SDS011;5304;48.604;2.096;2022-09-12T13:32:29;2.00;;;1.45;;
10511;SDS011;5304;48.604;2.096;2022-09-12T13:35:20;1.98;;;1.40;;
10511;SDS011;5304;48.604;2.096;2022-09-12T13:44:14;2.25;;;1.60;;
10511;SDS011;5304;48.604;2.096;2022-09-12T13:47:00;1.77;;;1.60;;
10511;SDS011;5304;48.604;2.096;2022-09-12T13:49:46;1.55;;;1.45;;
10511;SDS011;5304;48.604;2.096;2022-09-12T13:52:32;2.78;;;1.58;;
10511;SDS011;5304;48.604;2.096;2022-09-12T13:55:26;1.50;;;1.40;;
10511;SDS011;5304;48.604;2.096;2022-09-12T13:58:26;1.65;;;1.55;;
10511;SDS011;5304;48.604;2.096;2022-09-12T14:01:13;1.75;;;1.60;;
10511;SDS011;5304;48.604;2.096;2022-09-12T14:03:58;1.70;;;1.60;;
10511;SDS011;5304;48.604;2.096;2022-09-12T14:07:06;1.73;;;1.63;;
10511;SDS011;5304;48.604;2.096;2022-09-12T14:09:55;2.78;;;1.52;;
10511;SDS011;5304;48.604;2.096;2022-09-12T14:12:41;2.03;;;1.58;;
10511;SDS011;5304;48.604;2.096;2022-09-12T14:15:28;2.75;;;1.55;;
10511;SDS011;5304;48.604;2.096;2022-09-12T14:18:33;2.28;;;1.67;;
10511;SDS011;5304;48.604;2.096;2022-09-12T14:24:16;4.40;;;1.50;;
10511;SDS011;5304;48.604;2.096;2022-09-12T14:27:01;1.85;;;1.67;;
10511;SDS011;5304;48.604;2.096;2022-09-12T14:29:48;1.92;;;1.45;;
10511;SDS011;5304;48.604;2.096;2022-09-12T14:32:35;1.70;;;1.60;;
10511;SDS011;5304;48.604;2.096;2022-09-12T14:35:20;3.58;;;1.60;;
10511;SDS011;5304;48.604;2.096;2022-09-12T14:38:05;1.60;;;1.33;;
10511;SDS011;5304;48.604;2.096;2022-09-12T14:41:11;1.75;;;1.60;;
10511;SDS011;5304;48.604;2.096;2022-09-12T14:44:04;1.77;;;1.42;;
10511;SDS011;5304;48.604;2.096;2022-09-12T14:47:17;1.40;;;1.27;;
10511;SDS011;5304;48.604;2.096;2022-09-12T14:50:12;1.60;;;1.30;;
10511;SDS011;5304;48.604;2.096;2022-09-12T14:56:07;1.92;;;1.45;;
10511;SDS011;5304;48.604;2.096;2022-09-12T14:59:18;1.70;;;1.60;;
10511;SDS011;5304;48.604;2.096;2022-09-12T15:07:51;2.92;;;1.38;;
10511;SDS011;5304;48.604;2.096;2022-09-12T15:10:39;1.92;;;1.50;;
10511;SDS011;5304;48.604;2.096;2022-09-12T15:13:24;1.42;;;1.30;;
10511;SDS011;5304;48.604;2.096;2022-09-12T15:16:10;3.08;;;1.42;;
10511;SDS011;5304;48.604;2.096;2022-09-12T15:18:55;4.38;;;1.67;;
10511;SDS011;5304;48.604;2.096;2022-09-12T15:21:39;2.88;;;1.50;;
10511;SDS011;5304;48.604;2.096;2022-09-12T15:24:24;2.38;;;1.45;;
10511;SDS011;5304;48.604;2.096;2022-09-12T15:27:11;1.98;;;1.30;;
10511;SDS011;5304;48.604;2.096;2022-09-12T15:29:56;2.53;;;1.60;;
10511;SDS011;5304;48.604;2.096;2022-09-12T15:32:41;2.33;;;1.50;;
10511;SDS011;5304;48.604;2.096;2022-09-12T15:35:27;2.63;;;1.45;;
10511;SDS011;5304;48.604;2.096;2022-09-12T15:38:15;3.65;;;1.33;;
10511;SDS011;5304;48.604;2.096;2022-09-12T15:41:00;1.45;;;1.35;;
10511;SDS011;5304;48.604;2.096;2022-09-12T15:43:44;2.38;;;1.40;;
10511;SDS011;5304;48.604;2.096;2022-09-12T15:46:30;1.88;;;1.40;;
10511;SDS011;5304;48.604;2.096;2022-09-12T15:49:15;1.50;;;1.40;;
10511;SDS011;5304;48.604;2.096;2022-09-12T15:51:59;1.58;;;1.48;;
10511;SDS011;5304;48.604;2.096;2022-09-12T15:54:44;4.72;;;1.77;;
10511;SDS011;5304;48.604;2.096;2022-09-12T15:57:29;1.50;;;1.40;;
10511;SDS011;5304;48.604;2.096;2022-09-12T16:00:14;1.63;;;1.45;;
10511;SDS011;5304;48.604;2.096;2022-09-12T16:02:59;2.72;;;1.63;;
10511;SDS011;5304;48.604;2.096;2022-09-12T16:05:44;4.32;;;1.55;;
10511;SDS011;5304;48.604;2.096;2022-09-12T16:08:29;2.13;;;1.90;;
10511;SDS011;5304;48.604;2.096;2022-09-12T16:11:18;1.75;;;1.63;;
10511;SDS011;5304;48.604;2.096;2022-09-12T16:14:05;1.60;;;1.50;;
10511;SDS011;5304;48.604;2.096;2022-09-12T16:16:52;2.88;;;1.55;;
10511;SDS011;5304;48.604;2.096;2022-09-12T16:19:37;1.60;;;1.50;;
10511;SDS011;5304;48.604;2.096;2022-09-12T16:22:21;15.10;;;3.17;;
10511;SDS011;5304;48.604;2.096;2022-09-12T16:25:07;1.50;;;1.40;;
10511;SDS011;5304;48.604;2.096;2022-09-12T16:27:52;2.75;;;1.60;;
10511;SDS011;5304;48.604;2.096;2022-09-12T16:30:36;3.63;;;1.80;;
10511;SDS011;5304;48.604;2.096;2022-09-12T16:33:21;1.77;;;1.50;;
10511;SDS011;5304;48.604;2.096;2022-09-12T16:36:06;1.52;;;1.42;;
10511;SDS011;5304;48.604;2.096;2022-09-12T16:38:52;2.17;;;1.80;;
10511;SDS011;5304;48.604;2.096;2022-09-12T16:41:36;4.07;;;1.50;;
10511;SDS011;5304;48.604;2.096;2022-09-12T16:44:24;2.63;;;1.60;;
10511;SDS011;5304;48.604;2.096;2022-09-12T16:47:09;3.67;;;2.05;;
10511;SDS011;5304;48.604;2.096;2022-09-12T16:49:53;2.78;;;1.75;;
10511;SDS011;5304;48.604;2.096;2022-09-12T16:52:40;2.00;;;1.65;;
10511;SDS011;5304;48.604;2.096;2022-09-12T16:55:24;1.50;;;1.40;;
10511;SDS011;5304;48.604;2.096;2022-09-12T16:58:10;2.55;;;1.73;;
10511;SDS011;5304;48.604;2.096;2022-09-12T17:00:58;1.90;;;1.80;;
10511;SDS011;5304;48.604;2.096;2022-09-12T17:03:44;2.05;;;1.75;;
10511;SDS011;5304;48.604;2.096;2022-09-12T17:06:29;2.65;;;1.70;;
10511;SDS011;5304;48.604;2.096;2022-09-12T17:09:15;1.98;;;1.77;;
10511;SDS011;5304;48.604;2.096;2022-09-12T17:12:01;3.33;;;1.77;;
10511;SDS011;5304;48.604;2.096;2022-09-12T17:14:46;5.05;;;1.95;;
10511;SDS011;5304;48.604;2.096;2022-09-12T17:17:31;2.78;;;1.90;;
10511;SDS011;5304;48.604;2.096;2022-09-12T17:20:15;3.92;;;2.03;;
10511;SDS011;5304;48.604;2.096;2022-09-12T17:23:00;3.30;;;2.10;;
10511;SDS011;5304;48.604;2.096;2022-09-12T17:25:48;3.10;;;2.30;;
10511;SDS011;5304;48.604;2.096;2022-09-12T17:28:37;1.95;;;1.85;;
10511;SDS011;5304;48.604;2.096;2022-09-12T17:31:22;2.55;;;1.88;;
10511;SDS011;5304;48.604;2.096;2022-09-12T17:34:07;3.65;;;2.00;;
10511;SDS011;5304;48.604;2.096;2022-09-12T17:36:51;5.50;;;1.95;;
10511;SDS011;5304;48.604;2.096;2022-09-12T17:39:35;3.08;;;2.00;;
10511;SDS011;5304;48.604;2.096;2022-09-12T17:42:20;4.47;;;2.10;;
10511;SDS011;5304;48.604;2.096;2022-09-12T17:45:07;3.13;;;2.25;;
10511;SDS011;5304;48.604;2.096;2022-09-12T17:47:52;3.65;;;1.80;;
10511;SDS011;5304;48.604;2.096;2022-09-12T17:50:37;3.63;;;2.10;;
10511;SDS011;5304;48.604;2.096;2022-09-12T17:53:23;2.30;;;1.90;;
10511;SDS011;5304;48.604;2.096;2022-09-12T17:56:08;1.80;;;1.70;;
10511;SDS011;5304;48.604;2.096;2022-09-12T17:58:54;4.10;;;2.13;;
10511;SDS011;5304;48.604;2.096;2022-09-12T18:01:39;4.97;;;2.20;;
10511;SDS011;5304;48.604;2.096;2022-09-12T18:04:43;2.60;;;2.15;;
10511;SDS011;5304;48.604;2.096;2022-09-12T18:07:28;5.43;;;2.38;;
10511;SDS011;5304;48.604;2.096;2022-09-12T18:10:12;2.55;;;2.17;;
10511;SDS011;5304;48.604;2.096;2022-09-12T18:12:57;2.60;;;2.40;;
10511;SDS011;5304;48.604;2.096;2022-09-12T18:15:41;2.08;;;1.92;;
10511;SDS011;5304;48.604;2.096;2022-09-12T18:18:26;3.75;;;2.28;;
10511;SDS011;5304;48.604;2.096;2022-09-12T18:21:10;5.25;;;2.00;;
10511;SDS011;5304;48.604;2.096;2022-09-12T18:23:55;2.30;;;2.10;;
10511;SDS011;5304;48.604;2.096;2022-09-12T18:26:44;2.30;;;2.10;;
10511;SDS011;5304;48.604;2.096;2022-09-12T18:29:28;3.80;;;2.47;;
10511;SDS011;5304;48.604;2.096;2022-09-12T18:32:12;3.00;;;2.20;;
10511;SDS011;5304;48.604;2.096;2022-09-12T18:34:56;2.25;;;2.05;;
10511;SDS011;5304;48.604;2.096;2022-09-12T18:37:40;2.90;;;2.22;;
10511;SDS011;5304;48.604;2.096;2022-09-12T18:40:25;4.85;;;1.90;;
10511;SDS011;5304;48.604;2.096;2022-09-12T18:43:09;2.22;;;2.00;;
10511;SDS011;5304;48.604;2.096;2022-09-12T18:45:54;3.38;;;2.28;;
10511;SDS011;5304;48.604;2.096;2022-09-12T18:48:38;2.47;;;2.28;;
10511;SDS011;5304;48.604;2.096;2022-09-12T18:51:23;2.38;;;2.15;;
10511;SDS011;5304;48.604;2.096;2022-09-12T18:54:13;2.90;;;2.10;;
10511;SDS011;5304;48.604;2.096;2022-09-12T18:56:58;2.00;;;1.90;;
10511;SDS011;5304;48.604;2.096;2022-09-12T18:59:43;2.30;;;2.10;;
10511;SDS011;5304;48.604;2.096;2022-09-12T19:02:27;2.40;;;2.20;;
10511;SDS011;5304;48.604;2.096;2022-09-12T19:05:11;2.97;;;2.22;;
10511;SDS011;5304;48.604;2.096;2022-09-12T19:07:56;2.58;;;2.20;;
10511;SDS011;5304;48.604;2.096;2022-09-12T19:10:40;2.58;;;2.38;;
10511;SDS011;5304;48.604;2.096;2022-09-12T19:13:24;2.60;;;2.40;;
10511;SDS011;5304;48.604;2.096;2022-09-12T19:16:10;2.10;;;2.00;;
10511;SDS011;5304;48.604;2.096;2022-09-12T19:18:59;5.43;;;2.13;;
10511;SDS011;5304;48.604;2.096;2022-09-12T19:21:45;3.28;;;2.20;;
10511;SDS011;5304;48.604;2.096;2022-09-12T19:24:29;3.00;;;2.10;;